This is the latest recevied weather packets stored in our database for station/object OE5ERN-10. If no packets are shown the sender has not sent any weather packets the latest 10 day(s).
| Time | Temp. | Humidity | Pressure | Rain* | Wind** | Luminosity | Snow |
|---|---|---|---|---|---|---|---|
| 1777109153 | 31.11° C | 24% | 1020.9 hPa | 0 mm | - | - | - |
| 1777108253 | 29.44° C | 25% | 1020.9 hPa | 0 mm | - | - | - |
| 1777107353 | 29.44° C | 25% | 1021 hPa | 0 mm | - | - | - |
| 1777106453 | 28.89° C | 25% | 1021.1 hPa | 0 mm | - | - | - |
| 1777105553 | 28.33° C | 26% | 1021.3 hPa | 0 mm | - | - | - |
| 1777104653 | 27.22° C | 26% | 1021.2 hPa | 0 mm | - | - | - |
| 1777103754 | 27.22° C | 26% | 1021.2 hPa | 0 mm | - | - | - |
| 1777102854 | 28.89° C | 23% | 1021.3 hPa | 0 mm | - | - | - |
| 1777101954 | 30° C | 23% | 1021.3 hPa | 0 mm | - | - | - |
| 1777101054 | 30° C | 23% | 1021.4 hPa | 0 mm | - | - | - |
| 1777100154 | 30° C | 26% | 1021.5 hPa | 0 mm | - | - | - |
| 1777099254 | 28.33° C | 28% | 1021.7 hPa | 0 mm | - | - | - |
| 1777098354 | 28.89° C | 29% | 1021.6 hPa | 0 mm | - | - | - |
| 1777097454 | 25.56° C | 36% | 1021.5 hPa | 0 mm | - | - | - |
| 1777096554 | 21.11° C | 41% | 1021.4 hPa | 0 mm | - | - | - |
| 1777095654 | 15.56° C | 61% | 1021.5 hPa | 0 mm | - | - | - |
| 1777094754 | 6.67° C | 81% | 1021.6 hPa | 0 mm | - | - | - |
| 1777093854 | 5° C | 81% | 1021.6 hPa | 0 mm | - | - | - |
| 1777092954 | 3.89° C | 82% | 1021.4 hPa | 0 mm | - | - | - |
| 1777092054 | 2.78° C | 82% | 1021.3 hPa | 0 mm | - | - | - |
| 1777091154 | 2.22° C | 82% | 1021.1 hPa | 0 mm | - | - | - |
| 1777090254 | 1.67° C | 81% | 1021 hPa | 0 mm | - | - | - |
| 1777089354 | 1.67° C | 81% | 1021 hPa | 0 mm | - | - | - |
| 1777088454 | 2.22° C | 81% | 1021.2 hPa | 0 mm | - | - | - |
| 1777087554 | 1.67° C | 80% | 1021.1 hPa | 0 mm | - | - | - |
* Rain latest hour (hover to see other rain measurements)
** Current wind speed in m/s (hover to see current wind gust speed)